AAL2394 KMSY-KPHL
Flight info
| Callsign | AAL2394 |
|---|---|
| Flight time | 2h 21m |
| Altitude | 37000 |
| Route | CATLN Q22 BEARI BBDOL PAATS4 |
| Aircraft | B738/M-SDE2E3FGHIRWXY/LB1 |
Departure
| Time | 2026-05-03 20:49 |
|---|---|
| Airport | Louis Armstrong New Orleans International Airport (KMSY) |
Arrival
| Time | 2026-05-03 23:10 |
|---|---|
| Airport | Philadelphia International Airport (KPHL) |
| Time | Latitude | Longitude | Altitude | Speed | Heading |
|---|---|---|---|---|---|
| 2026-05-03 20:18 | 29.98608 | -90.25449 | 41 ft | 0 kts | 136° |
| 2026-05-03 20:32 | 29.98611 | -90.25452 | 13 ft | 3 kts | 136° |
| 2026-05-03 20:32 | 29.98630 | -90.25473 | 15 ft | 3 kts | 136° |
| 2026-05-03 20:32 | 29.98632 | -90.25476 | 15 ft | 1 kts | 136° |
| 2026-05-03 20:41 | 29.98631 | -90.25474 | 15 ft | 1 kts | 127° |
| 2026-05-03 20:41 | 29.98643 | -90.25454 | 14 ft | 4 kts | 22° |
| 2026-05-03 20:41 | 29.98688 | -90.25438 | 14 ft | 12 kts | 15° |
| 2026-05-03 20:41 | 29.98767 | -90.25390 | 15 ft | 13 kts | 34° |
| 2026-05-03 20:42 | 29.98851 | -90.25380 | 13 ft | 13 kts | 318° |
| 2026-05-03 20:42 | 29.98886 | -90.25475 | 13 ft | 13 kts | 285° |
| 2026-05-03 20:42 | 29.98910 | -90.25572 | 16 ft | 13 kts | 285° |
| 2026-05-03 20:42 | 29.98938 | -90.25692 | 17 ft | 16 kts | 283° |
| 2026-05-03 20:43 | 29.98967 | -90.25810 | 15 ft | 15 kts | 285° |
| 2026-05-03 20:43 | 29.99002 | -90.25954 | 13 ft | 21 kts | 287° |
| 2026-05-03 20:43 | 29.99042 | -90.26115 | 13 ft | 21 kts | 285° |
| 2026-05-03 20:43 | 29.99077 | -90.26270 | 12 ft | 20 kts | 287° |
| 2026-05-03 20:44 | 29.99115 | -90.26421 | 12 ft | 19 kts | 285° |
| 2026-05-03 20:44 | 29.99152 | -90.26568 | 12 ft | 19 kts | 287° |
| 2026-05-03 20:44 | 29.99185 | -90.26710 | 10 ft | 18 kts | 285° |
| 2026-05-03 20:44 | 29.99221 | -90.26859 | 14 ft | 19 kts | 285° |
| 2026-05-03 20:45 | 29.99257 | -90.27005 | 12 ft | 19 kts | 285° |
| 2026-05-03 20:45 | 29.99290 | -90.27146 | 11 ft | 18 kts | 285° |
| 2026-05-03 20:45 | 29.99325 | -90.27290 | 8 ft | 21 kts | 285° |
| 2026-05-03 20:45 | 29.99367 | -90.27463 | 6 ft | 23 kts | 284° |
| 2026-05-03 20:46 | 29.99408 | -90.27633 | 7 ft | 22 kts | 285° |
| 2026-05-03 20:46 | 29.99449 | -90.27802 | 5 ft | 21 kts | 286° |
| 2026-05-03 20:46 | 29.99488 | -90.27965 | 7 ft | 21 kts | 285° |
| 2026-05-03 20:46 | 29.99526 | -90.28123 | 10 ft | 20 kts | 289° |
| 2026-05-03 20:47 | 29.99633 | -90.28167 | 9 ft | 17 kts | 33° |
| 2026-05-03 20:47 | 29.99645 | -90.28091 | 8 ft | 0 kts | 104° |
| 2026-05-03 20:48 | 29.99604 | -90.27912 | 9 ft | 65 kts | 105° |
| 2026-05-03 20:48 | 29.99399 | -90.27063 | 14 ft | 151 kts | 104° |
| 2026-05-03 20:48 | 29.99049 | -90.25663 | 204 ft | 210 kts | 104° |
| 2026-05-03 20:48 | 29.98588 | -90.23898 | 508 ft | 245 kts | 105° |
| 2026-05-03 20:49 | 29.98106 | -90.21974 | 979 ft | 250 kts | 105° |
| 2026-05-03 20:49 | 29.97644 | -90.20070 | 1444 ft | 244 kts | 105° |
| 2026-05-03 20:49 | 29.97187 | -90.18190 | 1903 ft | 244 kts | 104° |
| 2026-05-03 20:49 | 29.96743 | -90.16292 | 2415 ft | 245 kts | 98° |
| 2026-05-03 20:50 | 29.96776 | -90.14359 | 2916 ft | 242 kts | 74° |
| 2026-05-03 20:50 | 29.97413 | -90.12562 | 3457 ft | 243 kts | 62° |
| 2026-05-03 20:50 | 29.98215 | -90.10834 | 3956 ft | 242 kts | 58° |
| 2026-05-03 20:50 | 29.99095 | -90.09189 | 4445 ft | 241 kts | 56° |
| 2026-05-03 20:51 | 30.00006 | -90.07544 | 4989 ft | 247 kts | 56° |
| 2026-05-03 20:51 | 30.00946 | -90.05846 | 5484 ft | 253 kts | 56° |
| 2026-05-03 20:51 | 30.01880 | -90.04152 | 5980 ft | 254 kts | 56° |
| 2026-05-03 20:51 | 30.02834 | -90.02414 | 6494 ft | 257 kts | 56° |
| 2026-05-03 20:52 | 30.03789 | -90.00663 | 6986 ft | 259 kts | 56° |
| 2026-05-03 20:52 | 30.04753 | -89.98891 | 7453 ft | 262 kts | 56° |
| 2026-05-03 20:52 | 30.05732 | -89.97086 | 7945 ft | 266 kts | 56° |
| 2026-05-03 20:52 | 30.06717 | -89.95267 | 8446 ft | 269 kts | 56° |
| 2026-05-03 20:53 | 30.07712 | -89.93425 | 8952 ft | 273 kts | 56° |
| 2026-05-03 20:53 | 30.08740 | -89.91522 | 9488 ft | 284 kts | 55° |
| 2026-05-03 20:53 | 30.09792 | -89.89571 | 10013 ft | 287 kts | 55° |
| 2026-05-03 20:53 | 30.10876 | -89.87559 | 10319 ft | 308 kts | 55° |
| 2026-05-03 20:54 | 30.12027 | -89.85424 | 10820 ft | 322 kts | 55° |
| 2026-05-03 20:54 | 30.14438 | -89.80935 | 12345 ft | 333 kts | 55° |
| 2026-05-03 20:54 | 30.15672 | -89.78634 | 13129 ft | 339 kts | 55° |
| 2026-05-03 20:55 | 30.16925 | -89.76295 | 13897 ft | 345 kts | 55° |
| 2026-05-03 20:55 | 30.18202 | -89.73910 | 14600 ft | 350 kts | 55° |
| 2026-05-03 20:55 | 30.19492 | -89.71500 | 15320 ft | 355 kts | 56° |
| 2026-05-03 20:55 | 30.20804 | -89.69046 | 16028 ft | 359 kts | 56° |
| 2026-05-03 20:56 | 30.22108 | -89.66607 | 16718 ft | 364 kts | 56° |
| 2026-05-03 20:56 | 30.23447 | -89.64100 | 17430 ft | 369 kts | 56° |
| 2026-05-03 20:56 | 30.24807 | -89.61553 | 18109 ft | 374 kts | 56° |
| 2026-05-03 20:56 | 30.26181 | -89.58978 | 18750 ft | 379 kts | 56° |
| 2026-05-03 20:57 | 30.27577 | -89.56361 | 19326 ft | 384 kts | 55° |
| 2026-05-03 20:57 | 30.28990 | -89.53711 | 19894 ft | 390 kts | 55° |
| 2026-05-03 20:57 | 30.30422 | -89.51020 | 20470 ft | 395 kts | 54° |
| 2026-05-03 20:57 | 30.31873 | -89.48297 | 21035 ft | 400 kts | 54° |
| 2026-05-03 20:58 | 30.33321 | -89.45575 | 21584 ft | 405 kts | 54° |
| 2026-05-03 20:58 | 30.34806 | -89.42784 | 22126 ft | 410 kts | 53° |
| 2026-05-03 20:58 | 30.36315 | -89.39945 | 22685 ft | 415 kts | 53° |
| 2026-05-03 20:58 | 30.37831 | -89.37089 | 23229 ft | 420 kts | 53° |
| 2026-05-03 20:59 | 30.39378 | -89.34173 | 23760 ft | 425 kts | 53° |
| 2026-05-03 20:59 | 30.40914 | -89.31269 | 24506 ft | 418 kts | 53° |
| 2026-05-03 20:59 | 30.42414 | -89.28429 | 25112 ft | 418 kts | 53° |
| 2026-05-03 20:59 | 30.43948 | -89.25531 | 25469 ft | 425 kts | 53° |
| 2026-05-03 21:00 | 30.45509 | -89.22580 | 25841 ft | 431 kts | 54° |
| 2026-05-03 21:00 | 30.46038 | -89.21578 | 25962 ft | 433 kts | 54° |
| 2026-05-03 21:00 | 30.48687 | -89.16567 | 26595 ft | 441 kts | 54° |
| 2026-05-03 21:00 | 30.50295 | -89.13522 | 27027 ft | 445 kts | 54° |
| 2026-05-03 21:01 | 30.51918 | -89.10445 | 27449 ft | 448 kts | 54° |
| 2026-05-03 21:01 | 30.53531 | -89.07384 | 27853 ft | 452 kts | 54° |
| 2026-05-03 21:01 | 30.55179 | -89.04252 | 28209 ft | 456 kts | 54° |
| 2026-05-03 21:01 | 30.56839 | -89.01096 | 28559 ft | 460 kts | 54° |
| 2026-05-03 21:02 | 30.58515 | -88.97906 | 28942 ft | 464 kts | 54° |
| 2026-05-03 21:02 | 30.60203 | -88.94693 | 29327 ft | 467 kts | 54° |
| 2026-05-03 21:02 | 30.61898 | -88.91460 | 29683 ft | 471 kts | 54° |
| 2026-05-03 21:02 | 30.63610 | -88.88195 | 30038 ft | 474 kts | 54° |
| 2026-05-03 21:03 | 30.65331 | -88.84910 | 30351 ft | 478 kts | 54° |
| 2026-05-03 21:03 | 30.67074 | -88.81583 | 30471 ft | 486 kts | 54° |
| 2026-05-03 21:03 | 30.68820 | -88.78245 | 30700 ft | 490 kts | 54° |
| 2026-05-03 21:03 | 30.70587 | -88.74861 | 31066 ft | 491 kts | 54° |
| 2026-05-03 21:04 | 30.72363 | -88.71455 | 31401 ft | 493 kts | 54° |
| 2026-05-03 21:04 | 30.74150 | -88.68027 | 31671 ft | 495 kts | 54° |
| 2026-05-03 21:04 | 30.75946 | -88.64580 | 31940 ft | 498 kts | 54° |
| 2026-05-03 21:04 | 30.77746 | -88.61123 | 32206 ft | 501 kts | 54° |
| 2026-05-03 21:05 | 30.79536 | -88.57681 | 32562 ft | 501 kts | 54° |
| 2026-05-03 21:05 | 30.81335 | -88.54218 | 32986 ft | 499 kts | 54° |
| 2026-05-03 21:05 | 30.83132 | -88.50754 | 33364 ft | 499 kts | 54° |
| 2026-05-03 21:05 | 30.84928 | -88.47291 | 33687 ft | 500 kts | 54° |
| 2026-05-03 21:06 | 30.86731 | -88.43816 | 33866 ft | 504 kts | 55° |
| 2026-05-03 21:06 | 30.88527 | -88.40350 | 34084 ft | 507 kts | 55° |
| 2026-05-03 21:06 | 30.90350 | -88.36829 | 34424 ft | 505 kts | 55° |
| 2026-05-03 21:06 | 30.92165 | -88.33314 | 34773 ft | 504 kts | 55° |
| 2026-05-03 21:07 | 30.93974 | -88.29810 | 35056 ft | 504 kts | 55° |
| 2026-05-03 21:07 | 30.95760 | -88.26348 | 35420 ft | 502 kts | 55° |
| 2026-05-03 21:07 | 30.97549 | -88.22875 | 35845 ft | 498 kts | 55° |
| 2026-05-03 21:07 | 30.99332 | -88.19413 | 36101 ft | 499 kts | 55° |
| 2026-05-03 21:08 | 31.01126 | -88.15929 | 36273 ft | 501 kts | 55° |
| 2026-05-03 21:08 | 31.02923 | -88.12437 | 36455 ft | 503 kts | 55° |
| 2026-05-03 21:08 | 31.04729 | -88.08923 | 36642 ft | 505 kts | 55° |
| 2026-05-03 21:08 | 31.06538 | -88.05401 | 36773 ft | 508 kts | 56° |
| 2026-05-03 21:09 | 31.08335 | -88.01896 | 36951 ft | 509 kts | 56° |
| 2026-05-03 21:09 | 31.10151 | -87.98350 | 37189 ft | 509 kts | 56° |
| 2026-05-03 21:09 | 31.13816 | -87.91186 | 37166 ft | 513 kts | 56° |
| 2026-05-03 21:10 | 31.17456 | -87.84052 | 37147 ft | 507 kts | 56° |
| 2026-05-03 21:10 | 31.21054 | -87.76992 | 37166 ft | 505 kts | 56° |
| 2026-05-03 21:11 | 31.24621 | -87.69983 | 37179 ft | 505 kts | 56° |
| 2026-05-03 21:11 | 31.28213 | -87.62909 | 37164 ft | 505 kts | 56° |
| 2026-05-03 21:12 | 31.31975 | -87.55979 | 37143 ft | 501 kts | 47° |
| 2026-05-03 21:12 | 31.35684 | -87.50791 | 37160 ft | 499 kts | 44° |
| 2026-05-03 21:13 | 31.40991 | -87.43653 | 37163 ft | 500 kts | 44° |
| 2026-05-03 21:13 | 31.44787 | -87.38477 | 37162 ft | 500 kts | 45° |
| 2026-05-03 21:14 | 31.49264 | -87.32280 | 37150 ft | 501 kts | 45° |
| 2026-05-03 21:14 | 31.53756 | -87.26018 | 37163 ft | 502 kts | 46° |
| 2026-05-03 21:15 | 31.58250 | -87.19740 | 37158 ft | 502 kts | 46° |
| 2026-05-03 21:15 | 31.62745 | -87.13455 | 37145 ft | 503 kts | 46° |
| 2026-05-03 21:16 | 31.67238 | -87.07166 | 37110 ft | 503 kts | 46° |
| 2026-05-03 21:16 | 31.71727 | -87.00872 | 37088 ft | 503 kts | 46° |
| 2026-05-03 21:17 | 31.76221 | -86.94562 | 37072 ft | 503 kts | 46° |
| 2026-05-03 21:17 | 31.80704 | -86.88255 | 37105 ft | 503 kts | 46° |
| 2026-05-03 21:18 | 31.85163 | -86.81972 | 37115 ft | 503 kts | 46° |
| 2026-05-03 21:18 | 31.89636 | -86.75659 | 37123 ft | 502 kts | 46° |
| 2026-05-03 21:19 | 31.94111 | -86.69331 | 37130 ft | 502 kts | 46° |
| 2026-05-03 21:19 | 31.98572 | -86.63015 | 37124 ft | 501 kts | 46° |
| 2026-05-03 21:20 | 32.03026 | -86.56697 | 37155 ft | 501 kts | 47° |
| 2026-05-03 21:20 | 32.07480 | -86.50370 | 37112 ft | 501 kts | 47° |
| 2026-05-03 21:21 | 32.11925 | -86.44043 | 37132 ft | 500 kts | 47° |
| 2026-05-03 21:21 | 32.16357 | -86.37724 | 37144 ft | 499 kts | 47° |
| 2026-05-03 21:22 | 32.20752 | -86.31449 | 37149 ft | 499 kts | 47° |
| 2026-05-03 21:22 | 32.25170 | -86.25130 | 37145 ft | 499 kts | 47° |
| 2026-05-03 21:23 | 32.29587 | -86.18801 | 37178 ft | 498 kts | 47° |
| 2026-05-03 21:23 | 32.33997 | -86.12472 | 37147 ft | 498 kts | 47° |
| 2026-05-03 21:24 | 32.38412 | -86.06123 | 37144 ft | 499 kts | 47° |
| 2026-05-03 21:24 | 32.42813 | -85.99786 | 37142 ft | 499 kts | 47° |
| 2026-05-03 21:25 | 32.47212 | -85.93440 | 37143 ft | 499 kts | 47° |
| 2026-05-03 21:25 | 32.51613 | -85.87081 | 37143 ft | 499 kts | 47° |
| 2026-05-03 21:26 | 32.56020 | -85.80702 | 37178 ft | 499 kts | 47° |
| 2026-05-03 21:26 | 32.60393 | -85.74362 | 37149 ft | 500 kts | 47° |
| 2026-05-03 21:27 | 32.64787 | -85.67978 | 37141 ft | 499 kts | 48° |
| 2026-05-03 21:27 | 32.69174 | -85.61594 | 37145 ft | 498 kts | 48° |
| 2026-05-03 21:28 | 32.73541 | -85.55230 | 37147 ft | 497 kts | 48° |
| 2026-05-03 21:28 | 32.77907 | -85.48856 | 37146 ft | 496 kts | 48° |
| 2026-05-03 21:29 | 32.82261 | -85.42488 | 37154 ft | 496 kts | 48° |
| 2026-05-03 21:29 | 32.86606 | -85.36123 | 37144 ft | 495 kts | 48° |
| 2026-05-03 21:30 | 32.90943 | -85.29759 | 37145 ft | 495 kts | 48° |
| 2026-05-03 21:30 | 32.95273 | -85.23393 | 37142 ft | 495 kts | 48° |
| 2026-05-03 21:31 | 32.99601 | -85.17020 | 37142 ft | 495 kts | 48° |
| 2026-05-03 21:31 | 33.03903 | -85.10674 | 37140 ft | 495 kts | 48° |
| 2026-05-03 21:32 | 33.08235 | -85.04273 | 37149 ft | 496 kts | 48° |
| 2026-05-03 21:32 | 33.12567 | -84.97860 | 37142 ft | 496 kts | 48° |
| 2026-05-03 21:33 | 33.16898 | -84.91439 | 37145 ft | 496 kts | 48° |
| 2026-05-03 21:33 | 33.21217 | -84.85023 | 37122 ft | 496 kts | 48° |
| 2026-05-03 21:34 | 33.25537 | -84.78594 | 37133 ft | 496 kts | 48° |
| 2026-05-03 21:34 | 33.29857 | -84.72155 | 37134 ft | 496 kts | 48° |
| 2026-05-03 21:35 | 33.34147 | -84.65748 | 37105 ft | 496 kts | 48° |
| 2026-05-03 21:35 | 33.38457 | -84.59300 | 37129 ft | 496 kts | 48° |
| 2026-05-03 21:36 | 33.42772 | -84.52835 | 37134 ft | 497 kts | 48° |
| 2026-05-03 21:36 | 33.47095 | -84.46345 | 37133 ft | 498 kts | 48° |
| 2026-05-03 21:37 | 33.51392 | -84.39882 | 37124 ft | 499 kts | 49° |
| 2026-05-03 21:37 | 33.55719 | -84.33364 | 37180 ft | 500 kts | 49° |
| 2026-05-03 21:38 | 33.60048 | -84.26829 | 37131 ft | 500 kts | 48° |
| 2026-05-03 21:38 | 33.64377 | -84.20283 | 37131 ft | 500 kts | 48° |
| 2026-05-03 21:39 | 33.68696 | -84.13741 | 37131 ft | 499 kts | 49° |
| 2026-05-03 21:39 | 33.73004 | -84.07203 | 37127 ft | 499 kts | 49° |
| 2026-05-03 21:40 | 33.77285 | -84.00694 | 37138 ft | 499 kts | 49° |
| 2026-05-03 21:40 | 33.81585 | -83.94144 | 37164 ft | 498 kts | 49° |
| 2026-05-03 21:41 | 33.85880 | -83.87590 | 37117 ft | 498 kts | 49° |
| 2026-05-03 21:41 | 33.90161 | -83.81039 | 37125 ft | 498 kts | 49° |
| 2026-05-03 21:42 | 33.94321 | -83.74375 | 37119 ft | 498 kts | 51° |
| 2026-05-03 21:42 | 33.98413 | -83.67654 | 37123 ft | 497 kts | 51° |
| 2026-05-03 21:43 | 34.02504 | -83.60941 | 37118 ft | 497 kts | 51° |
| 2026-05-03 21:43 | 34.06615 | -83.54219 | 37130 ft | 497 kts | 50° |
| 2026-05-03 21:44 | 34.10695 | -83.47551 | 37115 ft | 497 kts | 50° |
| 2026-05-03 21:44 | 34.14803 | -83.40824 | 37112 ft | 497 kts | 50° |
| 2026-05-03 21:45 | 34.18905 | -83.34095 | 37114 ft | 498 kts | 50° |
| 2026-05-03 21:45 | 34.23008 | -83.27350 | 37113 ft | 498 kts | 50° |
| 2026-05-03 21:46 | 34.27110 | -83.20593 | 37112 ft | 498 kts | 51° |
| 2026-05-03 21:46 | 34.31214 | -83.13820 | 37102 ft | 499 kts | 50° |
| 2026-05-03 21:47 | 34.35315 | -83.07039 | 37119 ft | 499 kts | 50° |
| 2026-05-03 21:47 | 34.39417 | -83.00243 | 37108 ft | 500 kts | 50° |
| 2026-05-03 21:48 | 34.43513 | -82.93445 | 37109 ft | 500 kts | 51° |
| 2026-05-03 21:48 | 34.47606 | -82.86638 | 37093 ft | 500 kts | 51° |
| 2026-05-03 21:49 | 34.51697 | -82.79823 | 37093 ft | 500 kts | 51° |
| 2026-05-03 21:49 | 34.55783 | -82.73003 | 37090 ft | 500 kts | 50° |
| 2026-05-03 21:50 | 34.59871 | -82.66165 | 37094 ft | 500 kts | 51° |
| 2026-05-03 21:50 | 34.63930 | -82.59364 | 37098 ft | 499 kts | 51° |
| 2026-05-03 21:51 | 34.67993 | -82.52542 | 37101 ft | 499 kts | 51° |
| 2026-05-03 21:51 | 34.72060 | -82.45701 | 37103 ft | 498 kts | 51° |
| 2026-05-03 21:52 | 34.76111 | -82.38873 | 37126 ft | 498 kts | 51° |
| 2026-05-03 21:52 | 34.80163 | -82.32032 | 37107 ft | 498 kts | 51° |
| 2026-05-03 21:53 | 34.84202 | -82.25198 | 37091 ft | 497 kts | 51° |
| 2026-05-03 21:53 | 34.88235 | -82.18361 | 37092 ft | 497 kts | 51° |
| 2026-05-03 21:54 | 34.92237 | -82.11564 | 37094 ft | 497 kts | 51° |
| 2026-05-03 21:54 | 34.96258 | -82.04721 | 37081 ft | 496 kts | 51° |
| 2026-05-03 21:55 | 35.00297 | -81.97833 | 37101 ft | 497 kts | 51° |
| 2026-05-03 21:55 | 35.04293 | -81.91024 | 37089 ft | 496 kts | 50° |
| 2026-05-03 21:56 | 35.08441 | -81.84302 | 37080 ft | 495 kts | 49° |
| 2026-05-03 21:56 | 35.12637 | -81.77625 | 37089 ft | 495 kts | 49° |
| 2026-05-03 21:57 | 35.16805 | -81.70934 | 37079 ft | 495 kts | 49° |
| 2026-05-03 21:57 | 35.20956 | -81.64219 | 37073 ft | 494 kts | 49° |
| 2026-05-03 21:58 | 35.24395 | -81.58636 | 37084 ft | 495 kts | 49° |
| 2026-05-03 21:58 | 35.28567 | -81.51855 | 37082 ft | 495 kts | 49° |
| 2026-05-03 21:59 | 35.32684 | -81.45153 | 37082 ft | 495 kts | 49° |
| 2026-05-03 21:59 | 35.36823 | -81.38400 | 37083 ft | 496 kts | 49° |
| 2026-05-03 22:00 | 35.40961 | -81.31637 | 37078 ft | 496 kts | 49° |
| 2026-05-03 22:00 | 35.45094 | -81.24867 | 37109 ft | 496 kts | 49° |
| 2026-05-03 22:01 | 35.49234 | -81.18075 | 37088 ft | 497 kts | 49° |
| 2026-05-03 22:01 | 35.53369 | -81.11276 | 37085 ft | 497 kts | 49° |
| 2026-05-03 22:02 | 35.57506 | -81.04460 | 37083 ft | 498 kts | 49° |
| 2026-05-03 22:02 | 35.61642 | -80.97645 | 37089 ft | 497 kts | 49° |
| 2026-05-03 22:03 | 35.65777 | -80.90825 | 37088 ft | 497 kts | 49° |
| 2026-05-03 22:03 | 35.69909 | -80.83993 | 37088 ft | 498 kts | 49° |
| 2026-05-03 22:04 | 35.74037 | -80.77151 | 37090 ft | 498 kts | 49° |
| 2026-05-03 22:04 | 35.78167 | -80.70292 | 37091 ft | 498 kts | 49° |
| 2026-05-03 22:05 | 35.82301 | -80.63415 | 37087 ft | 499 kts | 49° |
| 2026-05-03 22:05 | 35.86396 | -80.56586 | 37093 ft | 499 kts | 49° |
| 2026-05-03 22:06 | 35.90526 | -80.49685 | 37076 ft | 500 kts | 49° |
| 2026-05-03 22:06 | 35.94655 | -80.42772 | 37108 ft | 500 kts | 49° |
| 2026-05-03 22:07 | 35.98786 | -80.35842 | 37090 ft | 501 kts | 49° |
| 2026-05-03 22:07 | 36.02908 | -80.28894 | 37094 ft | 501 kts | 49° |
| 2026-05-03 22:08 | 36.07016 | -80.21952 | 37078 ft | 501 kts | 49° |
| 2026-05-03 22:08 | 36.11122 | -80.14999 | 37116 ft | 501 kts | 49° |
| 2026-05-03 22:09 | 36.15232 | -80.08028 | 37096 ft | 501 kts | 49° |
| 2026-05-03 22:10 | 36.21368 | -79.97620 | 37074 ft | 500 kts | 48° |
| 2026-05-03 22:10 | 36.25475 | -79.90668 | 37074 ft | 500 kts | 49° |
| 2026-05-03 22:11 | 36.29574 | -79.83711 | 37076 ft | 499 kts | 49° |
| 2026-05-03 22:11 | 36.33660 | -79.76759 | 37080 ft | 500 kts | 49° |
| 2026-05-03 22:12 | 36.37755 | -79.69775 | 37082 ft | 500 kts | 49° |
| 2026-05-03 22:12 | 36.41839 | -79.62796 | 37080 ft | 499 kts | 49° |
| 2026-05-03 22:13 | 36.45921 | -79.55803 | 37082 ft | 499 kts | 49° |
| 2026-05-03 22:13 | 36.49970 | -79.48854 | 37079 ft | 499 kts | 49° |
| 2026-05-03 22:14 | 36.54040 | -79.41856 | 37101 ft | 500 kts | 49° |
| 2026-05-03 22:14 | 36.58112 | -79.34839 | 37091 ft | 500 kts | 48° |
| 2026-05-03 22:15 | 36.62189 | -79.27800 | 37072 ft | 501 kts | 49° |
| 2026-05-03 22:15 | 36.66261 | -79.20754 | 37077 ft | 501 kts | 49° |
| 2026-05-03 22:16 | 36.70332 | -79.13694 | 37076 ft | 502 kts | 49° |
| 2026-05-03 22:16 | 36.74403 | -79.06619 | 37125 ft | 503 kts | 48° |
| 2026-05-03 22:17 | 36.78465 | -78.99546 | 37089 ft | 504 kts | 48° |
| 2026-05-03 22:17 | 36.82545 | -78.92428 | 37081 ft | 504 kts | 49° |
| 2026-05-03 22:18 | 36.86610 | -78.85285 | 37075 ft | 505 kts | 49° |
| 2026-05-03 22:18 | 36.90662 | -78.78129 | 37080 ft | 504 kts | 49° |
| 2026-05-03 22:19 | 36.94707 | -78.70968 | 37117 ft | 504 kts | 49° |
| 2026-05-03 22:19 | 36.98731 | -78.63835 | 37083 ft | 504 kts | 49° |
| 2026-05-03 22:20 | 37.02771 | -78.56661 | 37080 ft | 504 kts | 49° |
| 2026-05-03 22:20 | 37.06803 | -78.49483 | 37080 ft | 504 kts | 49° |
| 2026-05-03 22:21 | 37.10829 | -78.42300 | 37074 ft | 503 kts | 49° |
| 2026-05-03 22:21 | 37.14843 | -78.35125 | 37126 ft | 502 kts | 49° |
| 2026-05-03 22:22 | 37.18858 | -78.28005 | 37069 ft | 500 kts | 45° |
| 2026-05-03 22:22 | 37.23744 | -78.22055 | 37078 ft | 480 kts | 27° |
| 2026-05-03 22:23 | 37.29123 | -78.17125 | 37052 ft | 479 kts | 26° |
| 2026-05-03 22:23 | 37.34507 | -78.12178 | 37067 ft | 480 kts | 27° |
| 2026-05-03 22:24 | 37.39883 | -78.07146 | 37065 ft | 482 kts | 28° |
| 2026-05-03 22:24 | 37.45254 | -78.02077 | 37071 ft | 483 kts | 28° |
| 2026-05-03 22:25 | 37.50629 | -77.96994 | 37069 ft | 484 kts | 28° |
| 2026-05-03 22:25 | 37.56020 | -77.91892 | 37077 ft | 484 kts | 28° |
| 2026-05-03 22:26 | 37.61377 | -77.86814 | 37080 ft | 486 kts | 28° |
| 2026-05-03 22:26 | 37.66776 | -77.81692 | 37080 ft | 485 kts | 28° |
| 2026-05-03 22:27 | 37.72179 | -77.76571 | 37085 ft | 485 kts | 28° |
| 2026-05-03 22:27 | 37.77582 | -77.71437 | 37072 ft | 485 kts | 28° |
| 2026-05-03 22:28 | 37.82970 | -77.66300 | 37071 ft | 484 kts | 28° |
| 2026-05-03 22:28 | 37.88332 | -77.61157 | 37068 ft | 483 kts | 28° |
| 2026-05-03 22:29 | 37.93654 | -77.56039 | 37069 ft | 483 kts | 28° |
| 2026-05-03 22:29 | 37.99003 | -77.50889 | 37088 ft | 483 kts | 28° |
| 2026-05-03 22:30 | 38.04349 | -77.45733 | 37058 ft | 483 kts | 28° |
| 2026-05-03 22:30 | 38.09731 | -77.40674 | 37044 ft | 479 kts | 25° |
| 2026-05-03 22:31 | 38.15275 | -77.36026 | 37049 ft | 476 kts | 24° |
| 2026-05-03 22:31 | 38.20826 | -77.31422 | 37087 ft | 477 kts | 25° |
| 2026-05-03 22:32 | 38.26358 | -77.26747 | 37005 ft | 477 kts | 25° |
| 2026-05-03 22:32 | 38.29127 | -77.24389 | 36532 ft | 477 kts | 25° |
| 2026-05-03 22:32 | 38.31870 | -77.22046 | 36086 ft | 472 kts | 24° |
| 2026-05-03 22:32 | 38.34590 | -77.19724 | 35650 ft | 469 kts | 24° |
| 2026-05-03 22:33 | 38.37259 | -77.17448 | 35233 ft | 467 kts | 24° |
| 2026-05-03 22:33 | 38.39882 | -77.14978 | 34796 ft | 474 kts | 32° |
| 2026-05-03 22:33 | 38.42271 | -77.12037 | 34460 ft | 476 kts | 37° |
| 2026-05-03 22:33 | 38.44546 | -77.08975 | 34038 ft | 475 kts | 38° |
| 2026-05-03 22:34 | 38.46790 | -77.05885 | 33552 ft | 472 kts | 37° |
| 2026-05-03 22:34 | 38.49026 | -77.02837 | 33057 ft | 469 kts | 37° |
| 2026-05-03 22:34 | 38.51264 | -76.99837 | 32591 ft | 465 kts | 36° |
| 2026-05-03 22:34 | 38.53509 | -76.96871 | 32117 ft | 462 kts | 36° |
| 2026-05-03 22:35 | 38.55751 | -76.93935 | 31658 ft | 459 kts | 36° |
| 2026-05-03 22:35 | 38.57981 | -76.91022 | 31210 ft | 457 kts | 36° |
| 2026-05-03 22:35 | 38.60193 | -76.88131 | 30763 ft | 454 kts | 36° |
| 2026-05-03 22:35 | 38.62394 | -76.85248 | 30389 ft | 451 kts | 36° |
| 2026-05-03 22:36 | 38.64580 | -76.82378 | 29914 ft | 449 kts | 36° |
| 2026-05-03 22:36 | 38.66724 | -76.79562 | 29407 ft | 445 kts | 36° |
| 2026-05-03 22:36 | 38.68871 | -76.76731 | 28875 ft | 443 kts | 38° |
| 2026-05-03 22:36 | 38.70706 | -76.73497 | 28329 ft | 458 kts | 58° |
| 2026-05-03 22:37 | 38.71757 | -76.69611 | 27886 ft | 463 kts | 70° |
| 2026-05-03 22:37 | 38.72574 | -76.65638 | 27413 ft | 460 kts | 71° |
| 2026-05-03 22:37 | 38.73351 | -76.61674 | 26939 ft | 457 kts | 71° |
| 2026-05-03 22:37 | 38.74122 | -76.57742 | 26481 ft | 454 kts | 71° |
| 2026-05-03 22:38 | 38.74902 | -76.53834 | 26020 ft | 450 kts | 70° |
| 2026-05-03 22:38 | 38.75689 | -76.49967 | 25577 ft | 447 kts | 70° |
| 2026-05-03 22:38 | 38.76479 | -76.46126 | 25136 ft | 444 kts | 70° |
| 2026-05-03 22:38 | 38.77268 | -76.42317 | 24699 ft | 440 kts | 70° |
| 2026-05-03 22:39 | 38.78053 | -76.38534 | 24286 ft | 437 kts | 71° |
| 2026-05-03 22:39 | 38.78829 | -76.34782 | 23862 ft | 433 kts | 71° |
| 2026-05-03 22:39 | 38.79599 | -76.31057 | 23408 ft | 430 kts | 71° |
| 2026-05-03 22:39 | 38.80360 | -76.27363 | 22904 ft | 427 kts | 71° |
| 2026-05-03 22:40 | 38.81114 | -76.23697 | 22406 ft | 424 kts | 71° |
| 2026-05-03 22:40 | 38.81862 | -76.20053 | 21916 ft | 421 kts | 71° |
| 2026-05-03 22:40 | 38.82603 | -76.16438 | 21442 ft | 418 kts | 71° |
| 2026-05-03 22:40 | 38.83336 | -76.12853 | 20982 ft | 415 kts | 71° |
| 2026-05-03 22:41 | 38.84064 | -76.09285 | 20517 ft | 412 kts | 72° |
| 2026-05-03 22:41 | 38.84787 | -76.05738 | 20066 ft | 409 kts | 72° |
| 2026-05-03 22:41 | 38.85505 | -76.02212 | 19616 ft | 407 kts | 72° |
| 2026-05-03 22:41 | 38.86214 | -75.98710 | 19175 ft | 404 kts | 72° |
| 2026-05-03 22:42 | 38.86916 | -75.95229 | 18740 ft | 402 kts | 72° |
| 2026-05-03 22:42 | 38.87613 | -75.91768 | 18312 ft | 399 kts | 72° |
| 2026-05-03 22:42 | 38.88297 | -75.88366 | 17829 ft | 397 kts | 72° |
| 2026-05-03 22:42 | 38.89157 | -75.85036 | 17315 ft | 389 kts | 57° |
| 2026-05-03 22:43 | 38.90732 | -75.82311 | 16848 ft | 374 kts | 37° |
| 2026-05-03 22:43 | 38.92728 | -75.80258 | 16400 ft | 365 kts | 30° |
| 2026-05-03 22:43 | 38.94787 | -75.78367 | 15990 ft | 361 kts | 28° |
| 2026-05-03 22:43 | 38.96816 | -75.76519 | 15616 ft | 356 kts | 28° |
| 2026-05-03 22:44 | 38.98821 | -75.74670 | 15221 ft | 352 kts | 29° |
| 2026-05-03 22:44 | 39.00786 | -75.72831 | 14842 ft | 348 kts | 29° |
| 2026-05-03 22:44 | 39.02728 | -75.70998 | 14472 ft | 344 kts | 29° |
| 2026-05-03 22:44 | 39.04003 | -75.69792 | 14230 ft | 342 kts | 30° |
| 2026-05-03 22:45 | 39.05975 | -75.68150 | 13830 ft | 330 kts | 16° |
| 2026-05-03 22:45 | 39.08138 | -75.67482 | 13465 ft | 314 kts | 0° |
| 2026-05-03 22:45 | 39.10295 | -75.67224 | 13062 ft | 309 kts | 358° |
| 2026-05-03 22:45 | 39.12431 | -75.67026 | 12667 ft | 306 kts | 358° |
| 2026-05-03 22:46 | 39.14546 | -75.66831 | 12283 ft | 303 kts | 358° |
| 2026-05-03 22:46 | 39.16641 | -75.66626 | 11899 ft | 301 kts | 359° |
| 2026-05-03 22:46 | 39.18724 | -75.66412 | 11517 ft | 298 kts | 359° |
| 2026-05-03 22:46 | 39.20778 | -75.66194 | 11146 ft | 296 kts | 359° |
| 2026-05-03 22:47 | 39.22820 | -75.65973 | 10766 ft | 293 kts | 360° |
| 2026-05-03 22:47 | 39.24850 | -75.65752 | 10398 ft | 291 kts | 360° |
| 2026-05-03 22:47 | 39.26858 | -75.65532 | 10075 ft | 288 kts | 0° |
| 2026-05-03 22:47 | 39.28785 | -75.64969 | 10011 ft | 283 kts | 19° |
| 2026-05-03 22:48 | 39.30443 | -75.63680 | 10013 ft | 274 kts | 28° |
| 2026-05-03 22:48 | 39.31973 | -75.62317 | 10004 ft | 268 kts | 28° |
| 2026-05-03 22:48 | 39.33505 | -75.60959 | 10012 ft | 268 kts | 28° |
| 2026-05-03 22:48 | 39.35052 | -75.59602 | 10021 ft | 270 kts | 27° |
| 2026-05-03 22:49 | 39.36555 | -75.58289 | 10028 ft | 271 kts | 27° |
| 2026-05-03 22:49 | 39.38109 | -75.56902 | 10019 ft | 274 kts | 33° |
| 2026-05-03 22:49 | 39.39270 | -75.54903 | 10022 ft | 286 kts | 59° |
| 2026-05-03 22:49 | 39.40022 | -75.52508 | 10013 ft | 286 kts | 63° |
| 2026-05-03 22:50 | 39.40714 | -75.50141 | 9916 ft | 278 kts | 63° |
| 2026-05-03 22:50 | 39.41394 | -75.47808 | 9448 ft | 276 kts | 63° |
| 2026-05-03 22:50 | 39.42069 | -75.45507 | 8978 ft | 271 kts | 63° |
| 2026-05-03 22:50 | 39.42740 | -75.43241 | 8493 ft | 268 kts | 63° |
| 2026-05-03 22:51 | 39.43406 | -75.41005 | 8020 ft | 265 kts | 63° |
| 2026-05-03 22:51 | 39.44066 | -75.38795 | 7563 ft | 263 kts | 63° |
| 2026-05-03 22:51 | 39.44723 | -75.36596 | 7100 ft | 261 kts | 63° |
| 2026-05-03 22:51 | 39.45377 | -75.34406 | 6643 ft | 259 kts | 63° |
| 2026-05-03 22:52 | 39.46028 | -75.32240 | 6182 ft | 257 kts | 62° |
| 2026-05-03 22:52 | 39.47036 | -75.30426 | 5682 ft | 243 kts | 32° |
| 2026-05-03 22:52 | 39.48409 | -75.29208 | 5242 ft | 238 kts | 27° |
| 2026-05-03 22:52 | 39.49785 | -75.28045 | 4946 ft | 230 kts | 27° |
| 2026-05-03 22:53 | 39.51064 | -75.26959 | 4895 ft | 211 kts | 26° |
| 2026-05-03 22:53 | 39.52240 | -75.25956 | 4881 ft | 194 kts | 26° |
| 2026-05-03 22:53 | 39.53348 | -75.25018 | 4897 ft | 189 kts | 26° |
| 2026-05-03 22:53 | 39.54456 | -75.24082 | 4907 ft | 192 kts | 26° |
| 2026-05-03 22:54 | 39.55561 | -75.23146 | 4922 ft | 193 kts | 26° |
| 2026-05-03 22:54 | 39.56693 | -75.22186 | 4907 ft | 195 kts | 26° |
| 2026-05-03 22:54 | 39.57830 | -75.21218 | 4907 ft | 195 kts | 26° |
| 2026-05-03 22:54 | 39.58931 | -75.20278 | 4911 ft | 195 kts | 26° |
| 2026-05-03 22:55 | 39.60064 | -75.19311 | 4897 ft | 195 kts | 26° |
| 2026-05-03 22:55 | 39.61194 | -75.18344 | 4894 ft | 194 kts | 27° |
| 2026-05-03 22:55 | 39.62339 | -75.17366 | 4655 ft | 199 kts | 27° |
| 2026-05-03 22:55 | 39.63494 | -75.16378 | 4397 ft | 198 kts | 27° |
| 2026-05-03 22:56 | 39.64637 | -75.15397 | 4123 ft | 196 kts | 27° |
| 2026-05-03 22:56 | 39.65762 | -75.14430 | 3854 ft | 192 kts | 27° |
| 2026-05-03 22:56 | 39.66870 | -75.13481 | 3590 ft | 190 kts | 26° |
| 2026-05-03 22:56 | 39.67968 | -75.12539 | 3342 ft | 188 kts | 26° |
| 2026-05-03 22:57 | 39.69060 | -75.11602 | 3096 ft | 189 kts | 27° |
| 2026-05-03 22:57 | 39.70170 | -75.10651 | 3040 ft | 191 kts | 26° |
| 2026-05-03 22:57 | 39.71274 | -75.09701 | 2997 ft | 189 kts | 27° |
| 2026-05-03 22:57 | 39.72361 | -75.08766 | 2988 ft | 186 kts | 27° |
| 2026-05-03 22:58 | 39.73398 | -75.07741 | 2985 ft | 190 kts | 38° |
| 2026-05-03 22:58 | 39.74315 | -75.06466 | 3046 ft | 195 kts | 45° |
| 2026-05-03 22:58 | 39.75211 | -75.05159 | 3002 ft | 192 kts | 46° |
| 2026-05-03 22:58 | 39.76079 | -75.03890 | 3002 ft | 188 kts | 46° |
| 2026-05-03 22:59 | 39.76957 | -75.02616 | 2989 ft | 185 kts | 46° |
| 2026-05-03 22:59 | 39.77812 | -75.01385 | 2987 ft | 183 kts | 45° |
| 2026-05-03 22:59 | 39.78667 | -75.00160 | 3002 ft | 188 kts | 46° |
| 2026-05-03 22:59 | 39.79557 | -74.98888 | 2995 ft | 191 kts | 46° |
| 2026-05-03 23:00 | 39.80449 | -74.97615 | 2977 ft | 190 kts | 46° |
| 2026-05-03 23:00 | 39.81328 | -74.96357 | 2994 ft | 187 kts | 46° |
| 2026-05-03 23:00 | 39.82203 | -74.95113 | 2993 ft | 186 kts | 46° |
| 2026-05-03 23:00 | 39.83072 | -74.93876 | 2978 ft | 184 kts | 46° |
| 2026-05-03 23:01 | 39.83713 | -74.92452 | 2981 ft | 185 kts | 74° |
| 2026-05-03 23:01 | 39.84033 | -74.90790 | 3001 ft | 191 kts | 74° |
| 2026-05-03 23:01 | 39.84373 | -74.89108 | 2994 ft | 194 kts | 73° |
| 2026-05-03 23:01 | 39.84898 | -74.87513 | 2970 ft | 190 kts | 49° |
| 2026-05-03 23:02 | 39.85921 | -74.86503 | 2976 ft | 184 kts | 17° |
| 2026-05-03 23:02 | 39.87157 | -74.86342 | 2986 ft | 178 kts | 351° |
| 2026-05-03 23:02 | 39.88372 | -74.86624 | 2992 ft | 178 kts | 347° |
| 2026-05-03 23:02 | 39.89611 | -74.86936 | 2994 ft | 184 kts | 347° |
| 2026-05-03 23:03 | 39.90870 | -74.87265 | 2985 ft | 184 kts | 346° |
| 2026-05-03 23:03 | 39.91993 | -74.87997 | 2974 ft | 181 kts | 315° |
| 2026-05-03 23:03 | 39.92637 | -74.89380 | 2988 ft | 180 kts | 288° |
| 2026-05-03 23:03 | 39.92977 | -74.90950 | 2981 ft | 181 kts | 285° |
| 2026-05-03 23:04 | 39.93242 | -74.92552 | 2975 ft | 182 kts | 276° |
| 2026-05-03 23:04 | 39.93035 | -74.94143 | 2990 ft | 180 kts | 257° |
| 2026-05-03 23:04 | 39.92748 | -74.95719 | 2986 ft | 177 kts | 259° |
| 2026-05-03 23:04 | 39.92470 | -74.97287 | 2972 ft | 179 kts | 259° |
| 2026-05-03 23:05 | 39.92185 | -74.98868 | 2989 ft | 181 kts | 258° |
| 2026-05-03 23:05 | 39.91890 | -75.00479 | 2990 ft | 182 kts | 257° |
| 2026-05-03 23:05 | 39.91586 | -75.02030 | 2991 ft | 171 kts | 257° |
| 2026-05-03 23:05 | 39.91288 | -75.03519 | 2952 ft | 172 kts | 257° |
| 2026-05-03 23:06 | 39.90983 | -75.05036 | 2747 ft | 174 kts | 258° |
| 2026-05-03 23:06 | 39.90678 | -75.06554 | 2527 ft | 173 kts | 258° |
| 2026-05-03 23:06 | 39.90380 | -75.08023 | 2262 ft | 161 kts | 260° |
| 2026-05-03 23:06 | 39.90108 | -75.09376 | 2034 ft | 148 kts | 259° |
| 2026-05-03 23:07 | 39.89859 | -75.10614 | 1850 ft | 134 kts | 259° |
| 2026-05-03 23:07 | 39.89633 | -75.11737 | 1683 ft | 123 kts | 262° |
| 2026-05-03 23:07 | 39.89416 | -75.12830 | 1515 ft | 129 kts | 260° |
| 2026-05-03 23:07 | 39.89188 | -75.13969 | 1322 ft | 131 kts | 261° |
| 2026-05-03 23:08 | 39.88953 | -75.15138 | 1158 ft | 135 kts | 260° |
| 2026-05-03 23:08 | 39.88721 | -75.16294 | 979 ft | 128 kts | 260° |
| 2026-05-03 23:08 | 39.88507 | -75.17398 | 824 ft | 128 kts | 260° |
| 2026-05-03 23:08 | 39.88279 | -75.18574 | 686 ft | 140 kts | 259° |
| 2026-05-03 23:09 | 39.88011 | -75.19824 | 496 ft | 145 kts | 255° |
| 2026-05-03 23:09 | 39.87751 | -75.21072 | 284 ft | 138 kts | 256° |
| 2026-05-03 23:09 | 39.87536 | -75.22242 | 73 ft | 126 kts | 254° |
| 2026-05-03 23:09 | 39.87335 | -75.23222 | 25 ft | 91 kts | 256° |
| 2026-05-03 23:10 | 39.87230 | -75.23751 | 26 ft | 45 kts | 256° |
| 2026-05-03 23:10 | 39.87176 | -75.24074 | 24 ft | 22 kts | 278° |
| 2026-05-03 23:10 | 39.87226 | -75.24147 | 24 ft | 4 kts | 331° |
| 2026-05-03 23:10 | 39.87267 | -75.24174 | 24 ft | 9 kts | 333° |
| 2026-05-03 23:11 | 39.87333 | -75.24218 | 28 ft | 11 kts | 339° |
| 2026-05-03 23:11 | 39.87416 | -75.24237 | 28 ft | 13 kts | 351° |
| 2026-05-03 23:11 | 39.87463 | -75.24220 | 24 ft | 7 kts | 58° |
| 2026-05-03 23:11 | 39.87473 | -75.24177 | 24 ft | 0 kts | 74° |
| 2026-05-03 23:25 | 39.87434 | -75.24973 | 25 ft | 0 kts | 344° |